sensor_id;sensor_type;location;lat;lon;timestamp;pressure;altitude;pressure_sealevel;temperature;humidity
35806;BME280;21925;44.608;11.580;2022-10-31T00:02:12;102216.97;;;14.59;100.00
35806;BME280;21925;44.608;11.580;2022-10-31T00:04:38;102244.72;;;14.74;100.00
35806;BME280;21925;44.608;11.580;2022-10-31T00:07:04;102225.56;;;14.78;100.00
35806;BME280;21925;44.608;11.580;2022-10-31T00:09:29;102255.72;;;14.83;100.00
35806;BME280;21925;44.608;11.580;2022-10-31T00:11:55;102244.25;;;14.93;100.00
35806;BME280;21925;44.608;11.580;2022-10-31T00:14:21;102243.91;;;14.94;100.00
35806;BME280;21925;44.608;11.580;2022-10-31T00:16:47;102236.16;;;14.88;100.00
35806;BME280;21925;44.608;11.580;2022-10-31T00:19:12;102242.56;;;14.80;100.00
35806;BME280;21925;44.608;11.580;2022-10-31T00:21:38;102251.13;;;14.46;100.00
35806;BME280;21925;44.608;11.580;2022-10-31T00:24:04;102258.28;;;14.27;100.00
35806;BME280;21925;44.608;11.580;2022-10-31T00:26:31;102269.25;;;14.35;100.00
35806;BME280;21925;44.608;11.580;2022-10-31T00:28:58;102241.84;;;14.30;100.00
35806;BME280;21925;44.608;11.580;2022-10-31T00:31:24;102249.81;;;14.32;100.00
35806;BME280;21925;44.608;11.580;2022-10-31T00:33:50;102252.09;;;14.30;100.00
35806;BME280;21925;44.608;11.580;2022-10-31T00:36:18;102258.91;;;14.03;100.00
35806;BME280;21925;44.608;11.580;2022-10-31T00:38:45;102254.63;;;14.14;100.00
35806;BME280;21925;44.608;11.580;2022-10-31T00:41:12;102251.22;;;14.17;100.00
35806;BME280;21925;44.608;11.580;2022-10-31T00:43:40;102230.63;;;14.06;100.00
35806;BME280;21925;44.608;11.580;2022-10-31T00:46:06;102264.63;;;14.27;100.00
35806;BME280;21925;44.608;11.580;2022-10-31T00:48:32;102248.81;;;14.36;100.00
35806;BME280;21925;44.608;11.580;2022-10-31T00:50:58;102261.25;;;14.42;100.00
35806;BME280;21925;44.608;11.580;2022-10-31T00:53:24;102214.88;;;14.15;100.00
35806;BME280;21925;44.608;11.580;2022-10-31T00:55:50;102247.38;;;14.30;100.00
35806;BME280;21925;44.608;11.580;2022-10-31T00:58:16;102266.13;;;14.16;100.00
35806;BME280;21925;44.608;11.580;2022-10-31T01:00:43;102253.38;;;14.03;100.00
35806;BME280;21925;44.608;11.580;2022-10-31T01:03:10;102254.63;;;14.14;100.00
35806;BME280;21925;44.608;11.580;2022-10-31T01:05:40;102263.06;;;14.09;100.00
35806;BME280;21925;44.608;11.580;2022-10-31T01:08:08;102266.28;;;14.20;100.00
35806;BME280;21925;44.608;11.580;2022-10-31T01:10:37;102264.75;;;14.31;100.00
35806;BME280;21925;44.608;11.580;2022-10-31T01:13:04;102256.47;;;14.31;100.00
35806;BME280;21925;44.608;11.580;2022-10-31T01:15:29;102246.34;;;14.14;100.00
35806;BME280;21925;44.608;11.580;2022-10-31T01:17:55;102269.84;;;14.20;100.00
35806;BME280;21925;44.608;11.580;2022-10-31T01:20:21;102241.53;;;14.03;100.00
35806;BME280;21925;44.608;11.580;2022-10-31T01:22:47;102260.81;;;14.11;100.00
35806;BME280;21925;44.608;11.580;2022-10-31T01:25:12;102247.88;;;14.03;100.00
35806;BME280;21925;44.608;11.580;2022-10-31T01:27:38;102254.63;;;14.14;100.00
35806;BME280;21925;44.608;11.580;2022-10-31T01:30:06;102264.22;;;14.08;100.00
35806;BME280;21925;44.608;11.580;2022-10-31T01:32:32;102249.28;;;14.09;100.00
35806;BME280;21925;44.608;11.580;2022-10-31T01:34:58;102255.78;;;14.13;100.00
35806;BME280;21925;44.608;11.580;2022-10-31T01:37:24;102250.28;;;14.05;100.00
35806;BME280;21925;44.608;11.580;2022-10-31T01:39:49;102249.03;;;13.94;100.00
35806;BME280;21925;44.608;11.580;2022-10-31T01:42:18;102250.75;;;13.78;100.00
35806;BME280;21925;44.608;11.580;2022-10-31T01:44:54;102239.72;;;13.78;100.00
35806;BME280;21925;44.608;11.580;2022-10-31T01:47:45;102251.22;;;13.51;100.00
35806;BME280;21925;44.608;11.580;2022-10-31T01:50:15;102244.28;;;13.37;100.00
35806;BME280;21925;44.608;11.580;2022-10-31T01:52:47;102241.75;;;13.23;100.00
35806;BME280;21925;44.608;11.580;2022-10-31T01:55:25;102244.38;;;13.57;100.00
35806;BME280;21925;44.608;11.580;2022-10-31T01:57:55;102228.34;;;13.51;100.00
35806;BME280;21925;44.608;11.580;2022-10-31T02:00:22;102230.22;;;13.67;100.00
35806;BME280;21925;44.608;11.580;2022-10-31T02:02:49;102243.59;;;13.85;100.00
35806;BME280;21925;44.608;11.580;2022-10-31T02:05:24;102257.28;;;14.02;100.00
35806;BME280;21925;44.608;11.580;2022-10-31T02:10:36;102243.38;;;13.90;100.00
35806;BME280;21925;44.608;11.580;2022-10-31T02:13:06;102246.22;;;13.73;100.00
35806;BME280;21925;44.608;11.580;2022-10-31T02:15:45;102248.25;;;13.56;100.00
35806;BME280;21925;44.608;11.580;2022-10-31T02:18:13;102229.81;;;13.48;100.00
35806;BME280;21925;44.608;11.580;2022-10-31T02:32:25;102249.47;;;13.75;100.00
35806;BME280;21925;44.608;11.580;2022-10-31T02:38:09;102248.56;;;13.63;100.00
35806;BME280;21925;44.608;11.580;2022-10-31T02:40:51;102242.09;;;13.59;100.00
35806;BME280;21925;44.608;11.580;2022-10-31T02:46:40;102246.56;;;13.43;100.00
35806;BME280;21925;44.608;11.580;2022-10-31T02:52:20;102241.25;;;13.21;100.00
35806;BME280;21925;44.608;11.580;2022-10-31T02:54:47;102252.41;;;13.25;100.00
35806;BME280;21925;44.608;11.580;2022-10-31T02:57:16;102231.72;;;13.19;100.00
35806;BME280;21925;44.608;11.580;2022-10-31T02:59:48;102247.75;;;13.17;100.00
35806;BME280;21925;44.608;11.580;2022-10-31T03:10:45;102242.66;;;13.36;100.00
35806;BME280;21925;44.608;11.580;2022-10-31T03:14:05;102255.00;;;13.30;100.00
35806;BME280;21925;44.608;11.580;2022-10-31T03:16:47;102245.78;;;13.26;100.00
35806;BME280;21925;44.608;11.580;2022-10-31T03:19:29;102251.97;;;13.23;100.00
35806;BME280;21925;44.608;11.580;2022-10-31T03:22:12;102256.16;;;13.29;100.00
35806;BME280;21925;44.608;11.580;2022-10-31T03:24:43;102244.69;;;13.10;100.00
35806;BME280;21925;44.608;11.580;2022-10-31T03:27:13;102246.59;;;13.18;100.00
35806;BME280;21925;44.608;11.580;2022-10-31T03:29:42;102240.41;;;13.29;100.00
35806;BME280;21925;44.608;11.580;2022-10-31T03:32:13;102235.88;;;13.25;100.00
35806;BME280;21925;44.608;11.580;2022-10-31T03:34:44;102263.13;;;13.26;100.00
35806;BME280;21925;44.608;11.580;2022-10-31T03:37:14;102250.72;;;13.03;100.00
35806;BME280;21925;44.608;11.580;2022-10-31T03:39:44;102240.47;;;13.21;100.00
35806;BME280;21925;44.608;11.580;2022-10-31T03:42:16;102235.41;;;13.31;100.00
35806;BME280;21925;44.608;11.580;2022-10-31T03:44:47;102263.84;;;13.52;100.00
35806;BME280;21925;44.608;11.580;2022-10-31T03:47:14;102245.84;;;13.54;100.00
35806;BME280;21925;44.608;11.580;2022-10-31T03:49:40;102244.44;;;13.49;100.00
35806;BME280;21925;44.608;11.580;2022-10-31T03:55:20;102263.81;;;13.60;100.00
35806;BME280;21925;44.608;11.580;2022-10-31T03:58:33;102264.25;;;13.71;100.00
35806;BME280;21925;44.608;11.580;2022-10-31T04:01:06;102262.78;;;13.73;100.00
35806;BME280;21925;44.608;11.580;2022-10-31T04:03:37;102247.25;;;13.69;100.00
35806;BME280;21925;44.608;11.580;2022-10-31T04:06:10;102260.50;;;13.75;100.00
35806;BME280;21925;44.608;11.580;2022-10-31T04:08:59;102266.84;;;13.67;100.00
35806;BME280;21925;44.608;11.580;2022-10-31T04:11:31;102252.56;;;13.74;100.00
35806;BME280;21925;44.608;11.580;2022-10-31T04:14:18;102256.81;;;13.71;100.00
35806;BME280;21925;44.608;11.580;2022-10-31T04:16:46;102248.47;;;13.80;100.00
35806;BME280;21925;44.608;11.580;2022-10-31T04:19:14;102223.59;;;13.59;100.00
35806;BME280;21925;44.608;11.580;2022-10-31T04:21:40;102254.50;;;13.73;100.00
35806;BME280;21925;44.608;11.580;2022-10-31T04:24:10;102235.31;;;13.56;100.00
35806;BME280;21925;44.608;11.580;2022-10-31T04:26:36;102256.88;;;13.54;100.00
35806;BME280;21925;44.608;11.580;2022-10-31T04:29:01;102240.69;;;13.45;100.00
35806;BME280;21925;44.608;11.580;2022-10-31T04:31:28;102252.22;;;13.38;100.00
35806;BME280;21925;44.608;11.580;2022-10-31T04:33:53;102224.22;;;13.28;100.00
35806;BME280;21925;44.608;11.580;2022-10-31T04:36:20;102243.78;;;13.43;100.00
35806;BME280;21925;44.608;11.580;2022-10-31T04:38:47;102253.97;;;13.51;100.00
35806;BME280;21925;44.608;11.580;2022-10-31T04:41:30;102239.75;;;13.41;100.00
35806;BME280;21925;44.608;11.580;2022-10-31T04:44:07;102259.63;;;13.54;100.00
35806;BME280;21925;44.608;11.580;2022-10-31T04:46:32;102252.31;;;13.58;100.00
35806;BME280;21925;44.608;11.580;2022-10-31T04:48:58;102261.72;;;13.57;100.00
35806;BME280;21925;44.608;11.580;2022-10-31T04:51:24;102250.81;;;13.61;100.00
35806;BME280;21925;44.608;11.580;2022-10-31T04:53:50;102246.97;;;13.53;100.00
35806;BME280;21925;44.608;11.580;2022-10-31T04:56:35;102245.16;;;13.57;100.00
35806;BME280;21925;44.608;11.580;2022-10-31T04:59:08;102266.44;;;13.57;100.00
35806;BME280;21925;44.608;11.580;2022-10-31T05:01:44;102269.66;;;13.59;100.00
35806;BME280;21925;44.608;11.580;2022-10-31T05:04:10;102263.72;;;13.49;100.00
35806;BME280;21925;44.608;11.580;2022-10-31T05:06:36;102239.97;;;13.27;100.00
35806;BME280;21925;44.608;11.580;2022-10-31T05:09:02;102228.16;;;13.10;100.00
35806;BME280;21925;44.608;11.580;2022-10-31T05:11:28;102259.44;;;13.14;100.00
35806;BME280;21925;44.608;11.580;2022-10-31T05:14:00;102257.31;;;13.19;100.00
35806;BME280;21925;44.608;11.580;2022-10-31T05:16:46;102224.00;;;12.53;100.00
35806;BME280;21925;44.608;11.580;2022-10-31T05:19:30;102247.13;;;12.86;100.00
35806;BME280;21925;44.608;11.580;2022-10-31T05:22:19;102263.66;;;13.03;100.00
35806;BME280;21925;44.608;11.580;2022-10-31T05:24:45;102254.78;;;12.89;100.00
35806;BME280;21925;44.608;11.580;2022-10-31T05:27:12;102265.44;;;12.82;100.00
35806;BME280;21925;44.608;11.580;2022-10-31T05:29:38;102254.28;;;12.70;100.00
35806;BME280;21925;44.608;11.580;2022-10-31T05:32:03;102274.19;;;12.67;100.00
35806;BME280;21925;44.608;11.580;2022-10-31T05:34:47;102266.59;;;12.81;100.00
35806;BME280;21925;44.608;11.580;2022-10-31T05:37:36;102270.28;;;12.68;100.00
35806;BME280;21925;44.608;11.580;2022-10-31T05:40:07;102275.00;;;12.59;100.00
35806;BME280;21925;44.608;11.580;2022-10-31T05:42:33;102264.00;;;12.76;100.00
35806;BME280;21925;44.608;11.580;2022-10-31T05:44:59;102268.84;;;12.79;100.00
35806;BME280;21925;44.608;11.580;2022-10-31T05:47:55;102276.59;;;12.77;100.00
35806;BME280;21925;44.608;11.580;2022-10-31T05:50:40;102265.44;;;12.82;100.00
35806;BME280;21925;44.608;11.580;2022-10-31T05:53:09;102251.69;;;12.73;100.00
35806;BME280;21925;44.608;11.580;2022-10-31T05:55:36;102275.31;;;12.83;100.00
35806;BME280;21925;44.608;11.580;2022-10-31T05:58:07;102271.59;;;12.79;100.00
35806;BME280;21925;44.608;11.580;2022-10-31T06:00:35;102260.28;;;12.72;100.00
35806;BME280;21925;44.608;11.580;2022-10-31T06:03:08;102274.53;;;12.91;100.00
35806;BME280;21925;44.608;11.580;2022-10-31T06:05:45;102286.50;;;12.86;100.00
35806;BME280;21925;44.608;11.580;2022-10-31T06:08:12;102275.69;;;12.90;100.00
35806;BME280;21925;44.608;11.580;2022-10-31T06:10:39;102289.09;;;12.91;100.00
35806;BME280;21925;44.608;11.580;2022-10-31T06:13:05;102300.75;;;12.97;100.00
35806;BME280;21925;44.608;11.580;2022-10-31T06:15:49;102282.47;;;12.92;100.00
35806;BME280;21925;44.608;11.580;2022-10-31T06:18:16;102294.25;;;13.10;100.00
35806;BME280;21925;44.608;11.580;2022-10-31T06:20:47;102294.75;;;13.12;100.00
35806;BME280;21925;44.608;11.580;2022-10-31T06:23:13;102291.66;;;13.22;100.00
35806;BME280;21925;44.608;11.580;2022-10-31T06:25:42;102296.19;;;13.26;100.00
35806;BME280;21925;44.608;11.580;2022-10-31T06:28:14;102288.72;;;13.35;100.00
35806;BME280;21925;44.608;11.580;2022-10-31T06:30:49;102290.00;;;13.38;100.00
35806;BME280;21925;44.608;11.580;2022-10-31T06:33:15;102297.72;;;13.52;100.00
35806;BME280;21925;44.608;11.580;2022-10-31T06:35:51;102299.34;;;13.53;100.00
35806;BME280;21925;44.608;11.580;2022-10-31T06:38:21;102292.22;;;13.52;100.00
35806;BME280;21925;44.608;11.580;2022-10-31T06:40:47;102305.94;;;13.61;100.00
35806;BME280;21925;44.608;11.580;2022-10-31T06:43:21;102303.31;;;13.73;100.00
35806;BME280;21925;44.608;11.580;2022-10-31T06:45:49;102290.03;;;13.66;100.00
35806;BME280;21925;44.608;11.580;2022-10-31T06:48:24;102299.09;;;13.75;100.00
35806;BME280;21925;44.608;11.580;2022-10-31T06:51:25;102280.84;;;13.62;100.00
35806;BME280;21925;44.608;11.580;2022-10-31T06:53:51;102270.31;;;13.56;100.00
35806;BME280;21925;44.608;11.580;2022-10-31T06:56:18;102279.00;;;13.75;100.00
35806;BME280;21925;44.608;11.580;2022-10-31T06:58:48;102286.09;;;13.84;100.00
35806;BME280;21925;44.608;11.580;2022-10-31T07:01:15;102292.47;;;14.05;100.00
35806;BME280;21925;44.608;11.580;2022-10-31T07:03:41;102314.00;;;14.20;100.00
35806;BME280;21925;44.608;11.580;2022-10-31T07:06:07;102274.19;;;13.92;100.00
35806;BME280;21925;44.608;11.580;2022-10-31T07:08:33;102319.22;;;14.42;100.00
35806;BME280;21925;44.608;11.580;2022-10-31T07:10:59;102324.88;;;14.66;100.00
35806;BME280;21925;44.608;11.580;2022-10-31T07:13:41;102325.88;;;14.82;100.00
35806;BME280;21925;44.608;11.580;2022-10-31T07:16:09;102331.81;;;14.92;100.00
35806;BME280;21925;44.608;11.580;2022-10-31T07:18:39;102333.06;;;14.95;100.00
35806;BME280;21925;44.608;11.580;2022-10-31T07:21:07;102276.41;;;14.77;100.00
35806;BME280;21925;44.608;11.580;2022-10-31T07:23:34;102316.94;;;15.17;100.00
35806;BME280;21925;44.608;11.580;2022-10-31T07:26:18;102329.84;;;15.45;100.00
35806;BME280;21925;44.608;11.580;2022-10-31T07:28:46;102333.47;;;15.58;100.00
35806;BME280;21925;44.608;11.580;2022-10-31T07:31:14;102337.66;;;15.88;100.00
35806;BME280;21925;44.608;11.580;2022-10-31T07:33:40;102342.53;;;16.02;100.00
35806;BME280;21925;44.608;11.580;2022-10-31T07:36:25;102335.28;;;16.22;100.00
35806;BME280;21925;44.608;11.580;2022-10-31T07:38:53;102346.34;;;16.46;100.00
35806;BME280;21925;44.608;11.580;2022-10-31T07:41:20;102335.84;;;16.51;100.00
35806;BME280;21925;44.608;11.580;2022-10-31T07:43:46;102340.06;;;16.73;100.00
35806;BME280;21925;44.608;11.580;2022-10-31T07:46:15;102333.66;;;16.84;100.00
35806;BME280;21925;44.608;11.580;2022-10-31T07:48:59;102327.72;;;17.09;100.00
35806;BME280;21925;44.608;11.580;2022-10-31T07:51:44;102342.69;;;17.48;100.00
35806;BME280;21925;44.608;11.580;2022-10-31T07:54:42;102341.63;;;17.67;99.89
35806;BME280;21925;44.608;11.580;2022-10-31T07:57:08;102346.22;;;17.60;97.54
35806;BME280;21925;44.608;11.580;2022-10-31T07:59:37;102325.25;;;17.78;96.50
35806;BME280;21925;44.608;11.580;2022-10-31T08:02:05;102351.50;;;18.11;94.87
35806;BME280;21925;44.608;11.580;2022-10-31T08:05:07;102332.69;;;18.20;93.69
35806;BME280;21925;44.608;11.580;2022-10-31T08:07:52;102347.81;;;18.53;93.53
35806;BME280;21925;44.608;11.580;2022-10-31T08:10:23;102345.50;;;18.74;91.63
35806;BME280;21925;44.608;11.580;2022-10-31T08:13:02;102346.47;;;18.82;89.64
35806;BME280;21925;44.608;11.580;2022-10-31T08:15:31;102345.34;;;19.21;91.47
35806;BME280;21925;44.608;11.580;2022-10-31T08:18:05;102338.53;;;19.18;86.97
35806;BME280;21925;44.608;11.580;2022-10-31T08:20:37;102340.13;;;19.38;86.07
35806;BME280;21925;44.608;11.580;2022-10-31T08:23:05;102342.09;;;19.56;85.96
35806;BME280;21925;44.608;11.580;2022-10-31T08:25:34;102341.09;;;19.68;85.21
35806;BME280;21925;44.608;11.580;2022-10-31T08:28:02;102347.66;;;19.79;84.54
35806;BME280;21925;44.608;11.580;2022-10-31T08:30:33;102341.06;;;19.87;84.24
35806;BME280;21925;44.608;11.580;2022-10-31T08:33:20;102338.38;;;19.94;83.37
35806;BME280;21925;44.608;11.580;2022-10-31T08:36:20;102344.25;;;20.33;81.53
35806;BME280;21925;44.608;11.580;2022-10-31T08:38:54;102341.13;;;20.38;81.69
35806;BME280;21925;44.608;11.580;2022-10-31T08:41:21;102331.06;;;20.30;80.33
35806;BME280;21925;44.608;11.580;2022-10-31T08:43:46;102295.75;;;20.12;79.90
35806;BME280;21925;44.608;11.580;2022-10-31T08:46:14;102346.41;;;20.43;79.32
35806;BME280;21925;44.608;11.580;2022-10-31T08:48:42;102342.09;;;20.49;79.63
35806;BME280;21925;44.608;11.580;2022-10-31T08:51:10;102340.78;;;20.69;80.26
35806;BME280;21925;44.608;11.580;2022-10-31T08:53:36;102336.09;;;20.73;79.85
35806;BME280;21925;44.608;11.580;2022-10-31T08:56:22;102341.41;;;20.82;78.67
35806;BME280;21925;44.608;11.580;2022-10-31T08:58:49;102339.59;;;20.96;78.48
35806;BME280;21925;44.608;11.580;2022-10-31T09:01:21;102324.72;;;21.18;77.89
35806;BME280;21925;44.608;11.580;2022-10-31T09:03:46;102335.09;;;21.17;77.64
35806;BME280;21925;44.608;11.580;2022-10-31T09:06:12;102304.91;;;21.26;78.20
35806;BME280;21925;44.608;11.580;2022-10-31T09:08:39;102309.00;;;21.36;76.91
35806;BME280;21925;44.608;11.580;2022-10-31T09:11:07;102314.97;;;21.70;76.31
35806;BME280;21925;44.608;11.580;2022-10-31T09:13:56;102322.00;;;21.58;74.16
35806;BME280;21925;44.608;11.580;2022-10-31T09:16:25;102309.41;;;21.70;73.56
35806;BME280;21925;44.608;11.580;2022-10-31T09:18:51;102314.63;;;21.75;74.04
35806;BME280;21925;44.608;11.580;2022-10-31T09:21:17;102298.22;;;21.70;74.31
35806;BME280;21925;44.608;11.580;2022-10-31T09:23:45;102237.53;;;21.64;73.19
35806;BME280;21925;44.608;11.580;2022-10-31T09:26:14;102230.22;;;21.53;72.98
35806;BME280;21925;44.608;11.580;2022-10-31T09:28:45;102252.44;;;21.78;72.00
35806;BME280;21925;44.608;11.580;2022-10-31T09:31:14;102296.56;;;22.09;71.53
35806;BME280;21925;44.608;11.580;2022-10-31T09:33:49;102276.59;;;22.11;72.56
35806;BME280;21925;44.608;11.580;2022-10-31T09:36:37;102325.75;;;22.65;70.59
35806;BME280;21925;44.608;11.580;2022-10-31T09:39:07;102323.75;;;22.73;70.27
35806;BME280;21925;44.608;11.580;2022-10-31T09:41:56;102333.00;;;22.80;70.98
35806;BME280;21925;44.608;11.580;2022-10-31T09:44:40;102316.59;;;22.82;69.96
35806;BME280;21925;44.608;11.580;2022-10-31T09:53:20;102322.81;;;23.23;69.01
35806;BME280;21925;44.608;11.580;2022-10-31T09:56:04;102322.47;;;23.38;68.80
35806;BME280;21925;44.608;11.580;2022-10-31T09:58:45;102331.31;;;23.57;68.24
35806;BME280;21925;44.608;11.580;2022-10-31T10:02:03;102330.94;;;23.66;66.93
35806;BME280;21925;44.608;11.580;2022-10-31T10:07:55;102314.19;;;23.90;68.27
35806;BME280;21925;44.608;11.580;2022-10-31T10:11:04;102324.19;;;24.05;67.91
35806;BME280;21925;44.608;11.580;2022-10-31T10:17:24;102324.16;;;24.36;65.73
35806;BME280;21925;44.608;11.580;2022-10-31T10:20:16;102316.94;;;24.32;66.76
35806;BME280;21925;44.608;11.580;2022-10-31T10:30:22;102294.50;;;24.60;65.71
35806;BME280;21925;44.608;11.580;2022-10-31T10:32:56;102306.44;;;24.85;65.59
35806;BME280;21925;44.608;11.580;2022-10-31T10:35:34;102306.50;;;24.64;66.13
35806;BME280;21925;44.608;11.580;2022-10-31T10:38:12;102304.88;;;24.77;65.26
35806;BME280;21925;44.608;11.580;2022-10-31T10:40:41;102295.25;;;24.78;64.77
35806;BME280;21925;44.608;11.580;2022-10-31T10:43:33;102301.59;;;24.92;64.92
35806;BME280;21925;44.608;11.580;2022-10-31T11:01:10;102273.28;;;25.41;64.34
35806;BME280;21925;44.608;11.580;2022-10-31T11:03:37;102288.03;;;25.55;63.39
35806;BME280;21925;44.608;11.580;2022-10-31T11:06:03;102288.47;;;25.50;63.35
35806;BME280;21925;44.608;11.580;2022-10-31T11:08:32;102281.28;;;25.46;62.59
35806;BME280;21925;44.608;11.580;2022-10-31T11:11:24;102248.19;;;25.16;62.31
35806;BME280;21925;44.608;11.580;2022-10-31T11:14:02;102273.06;;;25.72;63.63
35806;BME280;21925;44.608;11.580;2022-10-31T11:16:42;102221.38;;;25.63;62.44
35806;BME280;21925;44.608;11.580;2022-10-31T11:19:17;102244.81;;;25.89;63.03
35806;BME280;21925;44.608;11.580;2022-10-31T11:21:45;102259.19;;;25.98;62.53
35806;BME280;21925;44.608;11.580;2022-10-31T11:24:40;102249.72;;;25.82;61.77
35806;BME280;21925;44.608;11.580;2022-10-31T11:27:16;102250.88;;;25.88;62.19
35806;BME280;21925;44.608;11.580;2022-10-31T11:29:45;102250.97;;;26.18;61.70
35806;BME280;21925;44.608;11.580;2022-10-31T11:32:24;102248.84;;;25.92;62.07
35806;BME280;21925;44.608;11.580;2022-10-31T11:35:01;102239.44;;;26.49;63.05
35806;BME280;21925;44.608;11.580;2022-10-31T11:37:34;102219.78;;;26.05;61.30
35806;BME280;21925;44.608;11.580;2022-10-31T11:40:14;102235.13;;;25.97;61.77
35806;BME280;21925;44.608;11.580;2022-10-31T11:42:43;102242.31;;;26.02;61.91
35806;BME280;21925;44.608;11.580;2022-10-31T11:45:34;102236.88;;;26.62;62.86
35806;BME280;21925;44.608;11.580;2022-10-31T11:48:18;102220.97;;;26.08;60.94
35806;BME280;21925;44.608;11.580;2022-10-31T11:50:50;102228.56;;;26.11;59.43
35806;BME280;21925;44.608;11.580;2022-10-31T11:53:28;102233.44;;;26.07;60.53
35806;BME280;21925;44.608;11.580;2022-10-31T11:56:04;102232.47;;;26.24;60.06
35806;BME280;21925;44.608;11.580;2022-10-31T11:58:31;102221.00;;;26.45;60.44
35806;BME280;21925;44.608;11.580;2022-10-31T12:00:59;102222.41;;;26.60;60.84
35806;BME280;21925;44.608;11.580;2022-10-31T12:04:06;102215.38;;;26.74;60.00
35806;BME280;21925;44.608;11.580;2022-10-31T12:06:37;102213.56;;;26.61;59.80
35806;BME280;21925;44.608;11.580;2022-10-31T12:09:33;102209.78;;;26.38;60.01
35806;BME280;21925;44.608;11.580;2022-10-31T12:12:27;102205.03;;;26.31;60.16
35806;BME280;21925;44.608;11.580;2022-10-31T12:15:29;102206.09;;;26.48;60.58
35806;BME280;21925;44.608;11.580;2022-10-31T12:20:54;102201.84;;;26.66;59.28
35806;BME280;21925;44.608;11.580;2022-10-31T12:28:54;102188.50;;;26.37;59.90
35806;BME280;21925;44.608;11.580;2022-10-31T12:45:33;102190.63;;;26.63;58.02
35806;BME280;21925;44.608;11.580;2022-10-31T12:48:21;102177.56;;;26.46;58.53
35806;BME280;21925;44.608;11.580;2022-10-31T13:01:51;102166.03;;;26.66;56.83
35806;BME280;21925;44.608;11.580;2022-10-31T13:04:35;102167.41;;;26.85;57.12
35806;BME280;21925;44.608;11.580;2022-10-31T13:07:52;102170.56;;;26.87;58.08
35806;BME280;21925;44.608;11.580;2022-10-31T13:10:06;102162.00;;;26.67;56.95
35806;BME280;21925;44.608;11.580;2022-10-31T13:12:35;102175.31;;;26.93;56.36
35806;BME280;21925;44.608;11.580;2022-10-31T13:15:29;102177.09;;;27.10;57.04
35806;BME280;21925;44.608;11.580;2022-10-31T13:18:03;102175.56;;;26.76;56.81
35806;BME280;21925;44.608;11.580;2022-10-31T13:20:40;102176.59;;;26.59;57.99
35806;BME280;21925;44.608;11.580;2022-10-31T13:23:34;102177.44;;;26.56;57.19
35806;BME280;21925;44.608;11.580;2022-10-31T13:26:20;102165.44;;;26.52;58.19
35806;BME280;21925;44.608;11.580;2022-10-31T13:29:27;102174.25;;;26.54;57.20
35806;BME280;21925;44.608;11.580;2022-10-31T13:32:00;102120.69;;;25.98;57.43
35806;BME280;21925;44.608;11.580;2022-10-31T13:34:47;102146.50;;;26.23;57.45
35806;BME280;21925;44.608;11.580;2022-10-31T13:38:01;102167.00;;;26.57;57.88
35806;BME280;21925;44.608;11.580;2022-10-31T13:46:26;102156.94;;;26.22;57.18
35806;BME280;21925;44.608;11.580;2022-10-31T13:52:25;102162.38;;;26.40;57.09
35806;BME280;21925;44.608;11.580;2022-10-31T13:54:53;102152.13;;;26.23;56.77
35806;BME280;21925;44.608;11.580;2022-10-31T13:57:41;102152.94;;;26.57;57.38
35806;BME280;21925;44.608;11.580;2022-10-31T14:00:24;102119.50;;;26.59;57.58
35806;BME280;21925;44.608;11.580;2022-10-31T14:02:54;102148.25;;;27.03;57.50
35806;BME280;21925;44.608;11.580;2022-10-31T14:05:33;102144.59;;;27.06;57.57
35806;BME280;21925;44.608;11.580;2022-10-31T14:08:15;102147.94;;;26.94;57.47
35806;BME280;21925;44.608;11.580;2022-10-31T14:10:50;102138.34;;;26.91;56.72
35806;BME280;21925;44.608;11.580;2022-10-31T14:13:32;102147.66;;;26.59;57.63
35806;BME280;21925;44.608;11.580;2022-10-31T14:16:19;102151.19;;;26.66;57.71
35806;BME280;21925;44.608;11.580;2022-10-31T14:18:56;102136.50;;;26.52;57.47
35806;BME280;21925;44.608;11.580;2022-10-31T14:23:53;102144.09;;;26.55;59.64
35806;BME280;21925;44.608;11.580;2022-10-31T14:29:02;102132.03;;;26.54;58.16
35806;BME280;21925;44.608;11.580;2022-10-31T14:34:20;102131.63;;;26.56;57.94
35806;BME280;21925;44.608;11.580;2022-10-31T14:51:27;102126.91;;;26.75;57.87
35806;BME280;21925;44.608;11.580;2022-10-31T14:53:56;102114.53;;;26.69;57.45
35806;BME280;21925;44.608;11.580;2022-10-31T14:56:34;102121.97;;;26.57;57.12
35806;BME280;21925;44.608;11.580;2022-10-31T14:59:08;102082.06;;;26.35;59.13
35806;BME280;21925;44.608;11.580;2022-10-31T15:01:38;102119.63;;;26.52;59.25
35806;BME280;21925;44.608;11.580;2022-10-31T15:06:47;102115.03;;;26.31;61.29
35806;BME280;21925;44.608;11.580;2022-10-31T15:09:33;102115.13;;;26.24;59.29
35806;BME280;21925;44.608;11.580;2022-10-31T15:12:01;102099.31;;;26.04;59.87
35806;BME280;21925;44.608;11.580;2022-10-31T15:14:40;102086.72;;;25.82;61.17
35806;BME280;21925;44.608;11.580;2022-10-31T15:17:30;102118.69;;;25.95;61.33
35806;BME280;21925;44.608;11.580;2022-10-31T15:19:57;102115.56;;;25.86;61.38
35806;BME280;21925;44.608;11.580;2022-10-31T15:22:28;102117.25;;;25.80;60.99
35806;BME280;21925;44.608;11.580;2022-10-31T15:24:59;102109.34;;;25.68;61.49
35806;BME280;21925;44.608;11.580;2022-10-31T15:27:27;102115.91;;;25.55;61.99
35806;BME280;21925;44.608;11.580;2022-10-31T15:29:58;102106.34;;;25.45;61.75